createdAt,value
2017-02-21T00:00:40.175Z,20
2017-02-21T00:03:12.807Z,20
2017-02-21T00:05:45.873Z,20
2017-02-21T00:08:18.495Z,20
2017-02-21T00:10:51.144Z,20
2017-02-21T00:13:23.772Z,20
2017-02-21T00:15:56.832Z,20
2017-02-21T00:18:30.043Z,20
2017-02-21T00:21:03.083Z,20
2017-02-21T00:23:35.688Z,20
2017-02-21T00:26:08.741Z,19.9
2017-02-21T00:28:41.965Z,19.9
2017-02-21T00:31:14.596Z,19.9
2017-02-21T00:33:47.224Z,19.9
2017-02-21T00:36:20.448Z,19.9
2017-02-21T00:38:53.089Z,19.9
2017-02-21T00:41:26.963Z,19.9
2017-02-21T00:44:00.028Z,19.9
2017-02-21T00:46:33.077Z,19.9
2017-02-21T00:49:05.701Z,19.9
2017-02-21T00:51:38.779Z,19.9
2017-02-21T00:54:11.413Z,19.9
2017-02-21T00:56:44.036Z,19.9
2017-02-21T00:59:16.861Z,19.9
2017-02-21T01:01:49.685Z,19.9
2017-02-21T01:04:22.323Z,19.9
2017-02-21T01:06:54.952Z,19.9
2017-02-21T01:09:27.628Z,19.9
2017-02-21T01:12:00.666Z,19.9
2017-02-21T01:14:33.450Z,19.9
2017-02-21T01:17:06.103Z,19.9
2017-02-21T01:19:39.164Z,19.8
2017-02-21T01:22:11.789Z,19.8
2017-02-21T01:24:44.450Z,19.8
2017-02-21T01:27:17.104Z,19.8
2017-02-21T01:29:50.184Z,19.8
2017-02-21T01:32:22.799Z,19.8
2017-02-21T01:34:55.421Z,19.8
2017-02-21T01:37:28.062Z,19.8
2017-02-21T01:40:00.688Z,19.8
2017-02-21T01:42:33.317Z,19.9
2017-02-21T01:45:05.958Z,19.9
2017-02-21T01:47:38.624Z,19.9
2017-02-21T01:50:11.265Z,19.9
2017-02-21T01:52:44.340Z,19.9
2017-02-21T01:55:17.389Z,19.9
2017-02-21T01:57:50.449Z,19.9
2017-02-21T02:00:23.108Z,19.9
2017-02-21T02:02:55.772Z,19.9
2017-02-21T02:05:28.364Z,19.9
2017-02-21T02:08:01.424Z,19.9
2017-02-21T02:10:34.088Z,19.9
2017-02-21T02:13:06.735Z,19.9
2017-02-21T02:15:39.377Z,19.9
2017-02-21T02:18:12.884Z,19.9
2017-02-21T02:20:45.536Z,19.9
2017-02-21T02:23:18.588Z,19.9
2017-02-21T02:25:51.257Z,19.9
2017-02-21T02:28:23.890Z,19.9
2017-02-21T02:30:57.424Z,19.9
2017-02-21T02:33:30.906Z,19.9
2017-02-21T02:36:03.966Z,19.9
2017-02-21T02:38:37.032Z,19.9
2017-02-21T02:41:09.663Z,19.9
2017-02-21T02:43:42.321Z,19.9
2017-02-21T02:46:15.387Z,19.9
2017-02-21T02:48:48.038Z,19.9
2017-02-21T02:51:20.674Z,19.9
2017-02-21T02:53:53.484Z,19.9
2017-02-21T02:56:26.101Z,19.9
2017-02-21T02:58:58.719Z,19.9
2017-02-21T03:01:31.353Z,19.9
2017-02-21T03:04:03.993Z,19.9
2017-02-21T03:06:36.639Z,19.9
2017-02-21T03:09:09.682Z,19.9
2017-02-21T03:11:42.352Z,19.9
2017-02-21T03:14:15.394Z,19.9
2017-02-21T03:16:48.004Z,19.9
2017-02-21T03:19:21.073Z,19.9
2017-02-21T03:21:53.841Z,19.9
2017-02-21T03:24:26.478Z,19.9
2017-02-21T03:26:59.569Z,19.9
2017-02-21T03:29:32.220Z,19.9
2017-02-21T03:32:04.881Z,19.9
2017-02-21T03:34:37.530Z,19.9
2017-02-21T03:37:10.595Z,19.9
2017-02-21T03:39:43.242Z,19.9
2017-02-21T03:42:15.888Z,19.9
2017-02-21T03:44:48.530Z,19.9
2017-02-21T03:47:21.161Z,19.9
2017-02-21T03:49:53.781Z,19.9
2017-02-21T03:52:26.564Z,19.9
2017-02-21T03:54:59.188Z,19.9
2017-02-21T03:57:32.669Z,19.9
2017-02-21T04:00:05.284Z,19.9
2017-02-21T04:02:37.940Z,19.9
2017-02-21T04:05:10.556Z,19.9
2017-02-21T04:07:43.221Z,20
2017-02-21T04:10:16.715Z,19.9
2017-02-21T04:12:49.356Z,20
2017-02-21T04:15:22.403Z,20
2017-02-21T04:17:55.008Z,20
2017-02-21T04:20:28.111Z,20
2017-02-21T04:23:00.729Z,20
2017-02-21T04:25:33.365Z,20
2017-02-21T04:28:05.994Z,20
2017-02-21T04:30:38.637Z,20
2017-02-21T04:33:11.252Z,20
2017-02-21T04:35:43.879Z,20
2017-02-21T04:38:16.498Z,20
2017-02-21T04:40:49.113Z,20
2017-02-21T04:43:22.580Z,20
2017-02-21T04:45:55.211Z,20
2017-02-21T04:48:27.851Z,20
2017-02-21T04:51:00.464Z,20
2017-02-21T04:53:33.518Z,20
2017-02-21T04:56:06.575Z,20
2017-02-21T04:58:39.647Z,20
2017-02-21T05:01:12.286Z,20
2017-02-21T05:03:44.969Z,20
2017-02-21T05:06:18.313Z,20
2017-02-21T05:08:51.355Z,20
2017-02-21T05:11:23.995Z,20
2017-02-21T05:13:57.098Z,20
2017-02-21T05:16:29.726Z,20
2017-02-21T05:19:02.805Z,20
2017-02-21T05:21:35.485Z,20
2017-02-21T05:24:08.546Z,20
2017-02-21T05:26:41.194Z,20
2017-02-21T05:29:13.812Z,20
2017-02-21T05:31:46.891Z,20
2017-02-21T05:34:19.946Z,20
2017-02-21T05:36:52.561Z,20
2017-02-21T05:39:25.232Z,20
2017-02-21T05:41:57.885Z,20
2017-02-21T05:44:30.524Z,20
2017-02-21T05:47:03.167Z,20
2017-02-21T05:49:35.801Z,20
2017-02-21T05:52:08.448Z,20
2017-02-21T05:54:41.111Z,20
2017-02-21T05:57:14.588Z,20
2017-02-21T05:59:47.640Z,20
2017-02-21T06:02:20.313Z,20
2017-02-21T06:04:53.392Z,20
2017-02-21T06:07:26.835Z,20
2017-02-21T06:09:59.453Z,20
2017-02-21T06:12:32.091Z,20
2017-02-21T06:15:04.716Z,20
2017-02-21T06:17:38.199Z,20
2017-02-21T06:20:11.274Z,20
2017-02-21T06:22:44.367Z,20
2017-02-21T06:25:17.445Z,20
2017-02-21T06:27:50.486Z,20
2017-02-21T06:30:23.109Z,20
2017-02-21T06:32:55.742Z,20
2017-02-21T06:35:28.399Z,20
2017-02-21T06:38:01.888Z,20
2017-02-21T06:40:34.551Z,20
2017-02-21T06:43:07.607Z,19.9
2017-02-21T06:45:40.210Z,20
2017-02-21T06:48:12.840Z,20
2017-02-21T06:50:45.499Z,20
2017-02-21T06:53:18.111Z,20
2017-02-21T06:55:50.748Z,20
2017-02-21T06:58:23.994Z,19.9
2017-02-21T07:00:57.067Z,20
2017-02-21T07:03:29.681Z,20
2017-02-21T07:06:02.751Z,20
2017-02-21T07:08:35.409Z,19.9
2017-02-21T07:11:08.063Z,20
2017-02-21T07:13:40.688Z,20
2017-02-21T07:16:13.348Z,20
2017-02-21T07:18:45.970Z,19.9
2017-02-21T07:21:19.036Z,20
2017-02-21T07:23:52.556Z,20
2017-02-21T07:26:25.211Z,20
2017-02-21T07:28:58.254Z,19.9
2017-02-21T07:31:30.868Z,20
2017-02-21T07:34:03.947Z,20
2017-02-21T07:36:36.576Z,20
2017-02-21T07:39:09.667Z,20
2017-02-21T07:41:42.307Z,20
2017-02-21T07:44:15.949Z,20
2017-02-21T07:46:49.184Z,20
2017-02-21T07:49:22.239Z,20
2017-02-21T07:51:54.866Z,20
2017-02-21T07:54:27.522Z,20
2017-02-21T07:57:00.163Z,20
2017-02-21T07:59:33.245Z,20
2017-02-21T08:02:05.864Z,20
2017-02-21T08:04:39.351Z,20
2017-02-21T08:07:12.005Z,20
2017-02-21T08:09:44.630Z,20
2017-02-21T08:12:17.681Z,20
2017-02-21T08:14:50.319Z,19.9
2017-02-21T08:17:22.954Z,19.9
2017-02-21T08:19:56.030Z,19.9
2017-02-21T08:22:28.619Z,19.9
2017-02-21T08:25:01.660Z,19.8
2017-02-21T08:27:35.057Z,19.8
2017-02-21T08:30:07.731Z,19.8
2017-02-21T08:32:40.394Z,19.8
2017-02-21T08:35:13.043Z,19.7
2017-02-21T08:37:45.665Z,19.7
2017-02-21T08:40:18.719Z,19.7
2017-02-21T08:42:52.229Z,19.7
2017-02-21T08:45:24.879Z,19.7
2017-02-21T08:47:57.942Z,19.7
2017-02-21T08:50:30.595Z,19.7
2017-02-21T08:53:03.640Z,19.7
2017-02-21T08:55:36.708Z,19.7
2017-02-21T08:58:09.783Z,19.7
2017-02-21T09:00:42.413Z,19.7
2017-02-21T09:03:15.021Z,19.7
2017-02-21T09:05:48.087Z,19.7
2017-02-21T09:08:20.751Z,19.8
2017-02-21T09:10:53.414Z,19.8
2017-02-21T09:13:26.041Z,19.8
2017-02-21T09:15:58.663Z,19.8
2017-02-21T09:18:31.312Z,19.8
2017-02-21T09:21:03.969Z,19.8
2017-02-21T09:23:36.607Z,19.8
2017-02-21T09:26:09.260Z,19.8
2017-02-21T09:28:42.335Z,19.8
2017-02-21T09:31:14.973Z,19.8
2017-02-21T09:33:48.013Z,19.8
2017-02-21T09:36:20.630Z,19.8
2017-02-21T09:38:53.257Z,19.8
2017-02-21T09:41:25.871Z,19.8
2017-02-21T09:43:59.349Z,19.8
2017-02-21T09:46:32.014Z,19.8
2017-02-21T09:49:05.531Z,19.9
2017-02-21T09:51:38.178Z,19.9
2017-02-21T09:54:10.805Z,19.9
2017-02-21T09:56:43.416Z,19.9
2017-02-21T09:59:16.047Z,19.9
2017-02-21T10:01:48.678Z,19.9
2017-02-21T10:04:21.321Z,19.9
2017-02-21T10:06:53.991Z,19.9
2017-02-21T10:09:27.061Z,19.8
2017-02-21T10:11:59.722Z,19.8
2017-02-21T10:14:32.347Z,19.8
2017-02-21T10:17:05.001Z,19.7
2017-02-21T10:19:37.649Z,19.7
2017-02-21T10:22:10.719Z,19.6
2017-02-21T10:24:43.808Z,19.6
2017-02-21T10:27:16.499Z,19.5
2017-02-21T10:29:49.106Z,19.5
2017-02-21T10:32:22.601Z,19.4
2017-02-21T10:34:55.320Z,19.4
2017-02-21T10:37:27.938Z,19.4
2017-02-21T10:40:00.592Z,19.3
2017-02-21T10:42:33.224Z,19.3
2017-02-21T10:45:05.877Z,19.3
2017-02-21T10:47:38.957Z,19.2
2017-02-21T10:50:11.585Z,19.2
2017-02-21T10:52:44.208Z,19.2
2017-02-21T10:55:16.887Z,19.1
2017-02-21T10:57:49.947Z,19.1
2017-02-21T11:00:22.604Z,19.1
2017-02-21T11:02:55.679Z,19.2
2017-02-21T11:05:28.306Z,19.2
2017-02-21T11:08:02.190Z,19.3
2017-02-21T11:10:34.830Z,19.3
2017-02-21T11:13:07.487Z,19.3
2017-02-21T11:15:40.166Z,19.4
2017-02-21T11:18:12.790Z,19.4
2017-02-21T11:20:45.833Z,19.4
2017-02-21T11:23:18.446Z,19.5
2017-02-21T11:25:51.081Z,19.5
2017-02-21T11:28:23.710Z,19.5
2017-02-21T11:30:56.346Z,19.6
2017-02-21T11:33:29.410Z,19.6
2017-02-21T11:36:02.465Z,19.6
2017-02-21T11:38:35.082Z,19.6
2017-02-21T11:41:07.733Z,19.6
2017-02-21T11:43:40.352Z,19.7
2017-02-21T11:46:12.977Z,19.7
2017-02-21T11:48:45.605Z,19.7
2017-02-21T11:51:18.251Z,19.7
2017-02-21T11:53:50.903Z,19.7
2017-02-21T11:56:23.521Z,19.8
2017-02-21T11:58:56.152Z,19.8
2017-02-21T12:01:28.762Z,19.8
2017-02-21T12:04:01.422Z,19.8
2017-02-21T12:06:34.921Z,19.8
2017-02-21T12:09:07.565Z,19.9
2017-02-21T12:11:40.618Z,19.9
2017-02-21T12:14:13.246Z,19.9
2017-02-21T12:16:45.912Z,19.9
2017-02-21T12:19:18.585Z,19.9
2017-02-21T12:21:51.226Z,19.9
2017-02-21T12:24:23.863Z,19.9
2017-02-21T12:26:56.517Z,19.9
2017-02-21T12:29:29.136Z,19.9
2017-02-21T12:32:01.774Z,19.9
2017-02-21T12:34:34.415Z,19.9
2017-02-21T12:37:07.051Z,19.9
2017-02-21T12:39:40.115Z,20
2017-02-21T12:42:12.764Z,20
2017-02-21T12:44:45.416Z,20
2017-02-21T12:47:18.338Z,20
2017-02-21T12:49:51.394Z,20
2017-02-21T12:52:24.043Z,20
2017-02-21T12:54:56.676Z,20
2017-02-21T12:57:29.512Z,20
2017-02-21T13:00:02.980Z,20
2017-02-21T13:02:35.603Z,20.1
2017-02-21T13:05:08.280Z,20.1
2017-02-21T13:07:41.551Z,20.1
2017-02-21T13:10:14.201Z,20.1
2017-02-21T13:12:46.877Z,20.1
2017-02-21T13:15:19.532Z,20.1
2017-02-21T13:17:52.305Z,20.1
2017-02-21T13:20:24.938Z,20.1
2017-02-21T13:22:57.612Z,20.1
2017-02-21T13:25:30.266Z,20.1
2017-02-21T13:28:02.910Z,20
2017-02-21T13:30:36.395Z,19.9
2017-02-21T13:33:09.034Z,19.9
2017-02-21T13:35:41.681Z,19.9
2017-02-21T13:38:14.345Z,19.9
2017-02-21T13:40:46.973Z,19.9
2017-02-21T13:43:20.003Z,19.9
2017-02-21T13:45:52.620Z,19.9
2017-02-21T13:48:25.261Z,19.9
2017-02-21T13:50:57.891Z,19.9
2017-02-21T13:53:30.553Z,20
2017-02-21T13:56:03.410Z,20
2017-02-21T13:58:36.071Z,20
2017-02-21T14:01:08.739Z,20.1
2017-02-21T14:03:41.358Z,20.1
2017-02-21T14:06:13.999Z,20.1
2017-02-21T14:08:47.112Z,20.1
2017-02-21T14:11:20.187Z,20.1
2017-02-21T14:13:53.660Z,20.2
2017-02-21T14:16:26.308Z,20.2
2017-02-21T14:18:58.956Z,20.2
2017-02-21T14:21:31.588Z,20.2
2017-02-21T14:24:04.632Z,20.2
2017-02-21T14:26:37.700Z,20.2
2017-02-21T14:29:10.747Z,20.3
2017-02-21T14:31:43.366Z,20.3
2017-02-21T14:34:15.985Z,20.3
2017-02-21T14:36:48.627Z,20.3
2017-02-21T14:39:22.102Z,20.3
2017-02-21T14:41:54.747Z,20.3
2017-02-21T14:44:27.439Z,20.3
2017-02-21T14:47:00.527Z,20.3
2017-02-21T14:49:33.166Z,20.3
2017-02-21T14:52:06.277Z,20.3
2017-02-21T14:54:39.747Z,20.3
2017-02-21T14:57:12.376Z,20.3
2017-02-21T14:59:45.029Z,20.3
2017-02-21T15:02:17.676Z,20.3
2017-02-21T15:04:50.288Z,20.3
2017-02-21T15:07:22.929Z,20.3
2017-02-21T15:09:55.601Z,20.3
2017-02-21T15:12:28.208Z,20.3
2017-02-21T15:15:01.031Z,20.4
2017-02-21T15:17:33.648Z,20.4
2017-02-21T15:20:06.308Z,20.4
2017-02-21T15:22:38.983Z,20.4
2017-02-21T15:25:11.614Z,20.4
2017-02-21T15:27:44.262Z,20.4
2017-02-21T15:30:17.777Z,20.4
2017-02-21T15:32:50.392Z,20.4
2017-02-21T15:35:23.436Z,20.4
2017-02-21T15:37:56.054Z,20.4
2017-02-21T15:40:28.671Z,20.4
2017-02-21T15:43:01.328Z,20.4
2017-02-21T15:45:34.405Z,20.4
2017-02-21T15:48:07.236Z,20.4
2017-02-21T15:50:40.606Z,20.4
2017-02-21T15:53:13.285Z,20.4
2017-02-21T15:55:46.367Z,20.3
2017-02-21T15:58:19.019Z,20.2
2017-02-21T16:00:52.088Z,20.1
2017-02-21T16:03:26.010Z,20.1
2017-02-21T16:05:58.684Z,20.1
2017-02-21T16:08:31.729Z,20.1
2017-02-21T16:11:04.373Z,20.1
2017-02-21T16:13:37.854Z,20.1
2017-02-21T16:16:10.499Z,20
2017-02-21T16:18:43.983Z,20
2017-02-21T16:21:16.599Z,19.9
2017-02-21T16:23:50.076Z,19.8
2017-02-21T16:26:22.689Z,19.8
2017-02-21T16:28:55.296Z,19.7
2017-02-21T16:31:27.940Z,19.7
2017-02-21T16:34:01.008Z,19.6
2017-02-21T16:36:33.620Z,19.6
2017-02-21T16:39:06.875Z,19.5
2017-02-21T16:41:39.528Z,19.5
2017-02-21T16:44:12.172Z,19.5
2017-02-21T16:46:44.835Z,19.5
2017-02-21T16:49:17.460Z,19.6
2017-02-21T16:51:50.097Z,19.6
2017-02-21T16:54:22.765Z,19.7
2017-02-21T16:56:55.428Z,19.7
2017-02-21T16:59:28.052Z,19.7
2017-02-21T17:02:00.681Z,19.8
2017-02-21T17:04:33.312Z,19.8
2017-02-21T17:07:05.939Z,19.8
2017-02-21T17:09:38.571Z,19.9
2017-02-21T17:12:11.174Z,19.9
2017-02-21T17:14:44.218Z,19.9
2017-02-21T17:17:17.242Z,19.9
2017-02-21T17:19:49.894Z,20
2017-02-21T17:22:22.550Z,20
2017-02-21T17:24:55.175Z,20
2017-02-21T17:27:28.425Z,20
2017-02-21T17:30:01.028Z,20.1
2017-02-21T17:32:34.078Z,20.1
2017-02-21T17:35:06.741Z,20.1
2017-02-21T17:37:39.826Z,20.2
2017-02-21T17:40:12.889Z,20.2
2017-02-21T17:42:45.527Z,20.2
2017-02-21T17:45:18.190Z,20.2
2017-02-21T17:47:50.814Z,20.2
2017-02-21T17:50:23.624Z,20.2
2017-02-21T17:52:56.694Z,20.2
2017-02-21T17:55:29.739Z,20.2
2017-02-21T17:58:02.399Z,20.2
2017-02-21T18:00:35.463Z,20.2
2017-02-21T18:03:08.092Z,20.2
2017-02-21T18:05:40.765Z,20.2
2017-02-21T18:08:13.821Z,20.2
2017-02-21T18:10:46.463Z,20.2
2017-02-21T18:13:19.965Z,20.2
2017-02-21T18:15:53.070Z,20.2
2017-02-21T18:18:25.680Z,20.2
2017-02-21T18:20:58.369Z,20.2
2017-02-21T18:23:30.986Z,20.1
2017-02-21T18:26:03.617Z,20.1
2017-02-21T18:28:36.240Z,20
2017-02-21T18:31:08.872Z,19.9
2017-02-21T18:33:41.884Z,19.9
2017-02-21T18:36:14.497Z,19.8
2017-02-21T18:38:47.127Z,19.7
2017-02-21T18:41:20.174Z,19.6
2017-02-21T18:43:52.835Z,19.6
2017-02-21T18:46:25.476Z,19.5
2017-02-21T18:48:58.542Z,19.4
2017-02-21T18:51:31.587Z,19.4
2017-02-21T18:54:04.438Z,19.4
2017-02-21T18:56:37.052Z,19.3
2017-02-21T18:59:10.115Z,19.4
2017-02-21T19:01:42.746Z,19.4
2017-02-21T19:04:15.366Z,19.4
2017-02-21T19:06:47.980Z,19.5
2017-02-21T19:09:20.629Z,19.5
2017-02-21T19:11:53.297Z,19.6
2017-02-21T19:14:26.347Z,19.6
2017-02-21T19:16:59.390Z,19.6
2017-02-21T19:19:31.988Z,19.7
2017-02-21T19:22:04.601Z,19.7
2017-02-21T19:24:37.682Z,19.8
2017-02-21T19:27:10.334Z,19.8
2017-02-21T19:29:42.953Z,19.8
2017-02-21T19:32:15.579Z,19.8
2017-02-21T19:34:48.634Z,19.9
2017-02-21T19:37:21.703Z,19.9
2017-02-21T19:39:54.345Z,19.9
2017-02-21T19:42:27.849Z,19.9
2017-02-21T19:45:00.501Z,20
2017-02-21T19:47:33.114Z,20
2017-02-21T19:50:05.760Z,20
2017-02-21T19:52:38.856Z,20
2017-02-21T19:55:11.894Z,20
2017-02-21T19:57:44.532Z,20
2017-02-21T20:00:17.139Z,20.1
2017-02-21T20:02:49.785Z,20.1
2017-02-21T20:05:22.454Z,20.1
2017-02-21T20:07:55.263Z,20.1
2017-02-21T20:10:27.854Z,20.1
2017-02-21T20:13:00.523Z,20.1
2017-02-21T20:15:33.987Z,20.1
2017-02-21T20:18:06.611Z,20.1
2017-02-21T20:20:39.280Z,20.1
2017-02-21T20:23:12.352Z,20
2017-02-21T20:25:45.435Z,20.1
2017-02-21T20:28:18.469Z,20
2017-02-21T20:30:51.138Z,20
2017-02-21T20:33:23.754Z,20
2017-02-21T20:35:56.417Z,20
2017-02-21T20:38:29.029Z,20.1
2017-02-21T20:41:02.103Z,20.1
2017-02-21T20:43:34.934Z,20.1
2017-02-21T20:46:07.593Z,20.1
2017-02-21T20:48:40.214Z,20.1
2017-02-21T20:51:13.253Z,20.1
2017-02-21T20:53:46.296Z,20.1
2017-02-21T20:56:18.917Z,20.1
2017-02-21T20:58:52.381Z,20.1
2017-02-21T21:01:25.033Z,20.1
2017-02-21T21:03:58.120Z,20.1
2017-02-21T21:06:30.750Z,20.1
2017-02-21T21:09:03.385Z,20.1
2017-02-21T21:11:36.039Z,20.1
2017-02-21T21:14:08.664Z,20.1
2017-02-21T21:16:41.306Z,20.1
2017-02-21T21:19:13.958Z,20.1
2017-02-21T21:21:46.732Z,20.1
2017-02-21T21:24:19.815Z,20.1
2017-02-21T21:26:52.872Z,20.1
2017-02-21T21:29:25.513Z,20.1
2017-02-21T21:31:58.170Z,20.1
2017-02-21T21:34:31.264Z,20.2
2017-02-21T21:37:03.920Z,20.2
2017-02-21T21:39:36.543Z,20.2
2017-02-21T21:42:09.150Z,20.2
2017-02-21T21:44:42.182Z,20.2
2017-02-21T21:47:14.842Z,20.2
2017-02-21T21:49:48.330Z,20.2
2017-02-21T21:52:21.389Z,20.2
2017-02-21T21:54:54.020Z,20.2
2017-02-21T21:57:26.662Z,20.2
2017-02-21T21:59:59.314Z,20.2
2017-02-21T22:02:31.973Z,20.2
2017-02-21T22:05:05.041Z,20.2
2017-02-21T22:07:38.105Z,20.2
2017-02-21T22:10:10.730Z,20.2
2017-02-21T22:12:43.793Z,20.2
2017-02-21T22:15:17.260Z,20.2
2017-02-21T22:17:50.100Z,20.2
2017-02-21T22:20:22.711Z,20.3
2017-02-21T22:22:55.323Z,20.3
2017-02-21T22:25:28.368Z,20.3
2017-02-21T22:28:01.004Z,20.3
2017-02-21T22:30:33.680Z,20.3
2017-02-21T22:33:06.335Z,20.3
2017-02-21T22:35:38.949Z,20.3
2017-02-21T22:38:11.782Z,20.3
2017-02-21T22:40:44.823Z,20.3
2017-02-21T22:43:17.445Z,20.3
2017-02-21T22:45:50.057Z,20.2
2017-02-21T22:48:23.104Z,20.2
2017-02-21T22:50:55.737Z,20.2
2017-02-21T22:53:28.376Z,20.2
2017-02-21T22:56:00.985Z,20.2
2017-02-21T22:58:33.609Z,20.2
2017-02-21T23:01:06.239Z,20.2
2017-02-21T23:03:38.863Z,20.2
2017-02-21T23:06:11.498Z,20.2
2017-02-21T23:08:44.571Z,20.2
2017-02-21T23:11:17.821Z,20.1
2017-02-21T23:13:50.453Z,20.2
2017-02-21T23:16:23.091Z,20.1
2017-02-21T23:18:55.755Z,20.1
2017-02-21T23:21:28.797Z,20.1
2017-02-21T23:24:01.845Z,20.1
2017-02-21T23:26:35.316Z,20.1
2017-02-21T23:29:08.347Z,20.1
2017-02-21T23:31:40.999Z,20.1
2017-02-21T23:34:13.663Z,20.1
2017-02-21T23:36:46.297Z,20.1
2017-02-21T23:39:18.924Z,20.1
2017-02-21T23:41:51.963Z,20.2
2017-02-21T23:44:24.600Z,20.2
2017-02-21T23:46:57.260Z,20.2
2017-02-21T23:49:29.906Z,20.2
2017-02-21T23:52:02.537Z,20.2
2017-02-21T23:54:35.580Z,20.2
2017-02-21T23:57:08.253Z,20.2
2017-02-21T23:59:40.858Z,20.2
